St Pierre — FIDX — position and weather

sailwx.info

Track history (hours):
 
Tides and Currents Weather Stations Pressure Air Temp Water Temp Dewpoint Dewpoint Depression Visibility Wind Speed Wind Dir Waves Ship Positions

St Pierre

Last reported at 2014-Oct-24 13:25 UTC. Time now 2014-Oct-24 23:07 UTC.
Position N 47°18' W 002°07'.

Length 84 m; draft 6.2 m.

Type: Cargo ship. MMSI: 228024800.

Date/timePositionNaut miles runAvg speedWind from/ knotsBaromVisibWave heightAir tempDewpointWater temp
2014-Oct-24 13:25N 47°18' W 002°07'16 8.3
2014-Oct-24 11:30N 47°06' W 002°21'0 0.2
2014-Oct-24 10:29N 47°06' W 002°21'0 0.3
2014-Oct-24 09:33N 47°06' W 002°21'15 6.6
2014-Oct-24 07:12N 47°18' W 002°08'0 0.0
2014-Oct-24 06:33N 47°18' W 002°08'0 0.0
2014-Oct-23 21:12N 47°18' W 002°08'0 0.0
2014-Oct-23 20:18N 47°18' W 002°08'0 0.0
2014-Oct-23 05:28N 47°18' W 002°07'0 0.0
2014-Oct-22 22:33N 47°18' W 002°07'0 0.0
2014-Oct-22 21:19N 47°18' W 002°07'  
2014-Oct-20 04:19N 47°07' W 002°21'1 0.1
2014-Oct-19 16:16N 47°06' W 002°21'7 8.2
2014-Oct-19 15:28N 47°12' W 002°17'7 0.8
2014-Oct-19 07:22N 47°05' W 002°21'0 0.3
2014-Oct-19 06:34N 47°06' W 002°21'0 0.2
2014-Oct-19 05:20N 47°05' W 002°21'2 3.0
2014-Oct-19 04:32N 47°08' W 002°20'2 0.2
2014-Oct-18 19:15N 47°06' W 002°21'0 0.6
2014-Oct-18 18:29N 47°06' W 002°21'  
Track history (hours):
 
Tides and Currents Weather Stations Pressure Air Temp Water Temp Dewpoint Dewpoint Depression Visibility Wind Speed Wind Dir Waves Ship Positions

St Pierre

Last reported at 2014-Oct-24 13:25 UTC. Time now 2014-Oct-24 23:07 UTC.
Position N 47°18' W 002°07'.

Length 84 m; draft 6.2 m.

Type: Cargo ship. MMSI: 228024800.

Date/timePositionNaut miles runAvg speedWind from/ knotsBaromVisibWave heightAir tempDewpointWater temp
2014-Oct-24 13:25N 47°18' W 002°07'16 8.3
2014-Oct-24 11:30N 47°06' W 002°21'0 0.2
2014-Oct-24 10:29N 47°06' W 002°21'0 0.3
2014-Oct-24 09:33N 47°06' W 002°21'15 6.6
2014-Oct-24 07:12N 47°18' W 002°08'0 0.0
2014-Oct-24 06:33N 47°18' W 002°08'0 0.0
2014-Oct-23 21:12N 47°18' W 002°08'0 0.0
2014-Oct-23 20:18N 47°18' W 002°08'0 0.0
2014-Oct-23 05:28N 47°18' W 002°07'0 0.0
2014-Oct-22 22:33N 47°18' W 002°07'0 0.0
2014-Oct-22 21:19N 47°18' W 002°07'  
2014-Oct-20 04:19N 47°07' W 002°21'1 0.1
2014-Oct-19 16:16N 47°06' W 002°21'7 8.2
2014-Oct-19 15:28N 47°12' W 002°17'7 0.8
2014-Oct-19 07:22N 47°05' W 002°21'0 0.3
2014-Oct-19 06:34N 47°06' W 002°21'0 0.2
2014-Oct-19 05:20N 47°05' W 002°21'2 3.0
2014-Oct-19 04:32N 47°08' W 002°20'2 0.2
2014-Oct-18 19:15N 47°06' W 002°21'0 0.6
2014-Oct-18 18:29N 47°06' W 002°21'  

Dump ship's entire track history